createdAt,value
2023-05-14T00:01:55.428Z,13.10
2023-05-14T00:04:24.157Z,12.47
2023-05-14T00:06:52.528Z,12.83
2023-05-14T00:09:22.222Z,12.33
2023-05-14T00:11:50.829Z,12.50
2023-05-14T00:14:19.252Z,12.40
2023-05-14T00:16:47.589Z,12.25
2023-05-14T00:19:16.322Z,12.44
2023-05-14T00:21:46.915Z,12.58
2023-05-14T00:24:15.899Z,12.68
2023-05-14T00:26:45.799Z,12.57
2023-05-14T00:29:14.108Z,12.61
2023-05-14T00:31:42.643Z,12.67
2023-05-14T00:34:10.934Z,12.42
2023-05-14T00:36:39.281Z,12.56
2023-05-14T00:39:07.818Z,12.72
2023-05-14T00:41:36.350Z,11.95
2023-05-14T00:44:06.297Z,12.02
2023-05-14T00:46:35.100Z,12.01
2023-05-14T00:49:03.393Z,11.95
2023-05-14T00:51:31.687Z,11.90
2023-05-14T00:54:00.300Z,11.93
2023-05-14T00:56:29.381Z,11.75
2023-05-14T00:58:57.679Z,12.04
2023-05-14T01:01:28.701Z,11.87
2023-05-14T01:03:57.980Z,12.23
2023-05-14T01:06:27.580Z,12.00
2023-05-14T01:08:58.230Z,11.69
2023-05-14T01:11:27.500Z,11.91
2023-05-14T01:13:57.806Z,11.98
2023-05-14T01:16:28.193Z,11.99
2023-05-14T01:18:56.941Z,11.94
2023-05-14T01:21:30.601Z,12.16
2023-05-14T01:23:59.219Z,11.93
2023-05-14T01:26:28.074Z,12.07
2023-05-14T01:28:56.424Z,12.10
2023-05-14T01:31:27.897Z,12.14
2023-05-14T01:33:56.255Z,12.35
2023-05-14T01:36:24.912Z,12.35
2023-05-14T01:38:54.621Z,12.15
2023-05-14T01:41:22.911Z,11.84
2023-05-14T01:43:52.805Z,11.98
2023-05-14T01:46:21.190Z,11.78
2023-05-14T01:48:49.481Z,12.08
2023-05-14T01:51:20.382Z,11.48
2023-05-14T01:53:48.753Z,11.81
2023-05-14T01:56:18.405Z,11.89
2023-05-14T01:58:47.186Z,11.77
2023-05-14T02:01:15.630Z,11.70
2023-05-14T02:03:44.279Z,11.56
2023-05-14T02:06:12.681Z,11.76
2023-05-14T02:08:40.994Z,11.63
2023-05-14T02:11:09.689Z,11.32
2023-05-14T02:13:39.799Z,11.58
2023-05-14T02:16:08.643Z,11.69
2023-05-14T02:18:37.090Z,11.99
2023-05-14T02:21:05.904Z,11.43
2023-05-14T02:23:41.474Z,11.71
2023-05-14T02:26:11.001Z,11.75
2023-05-14T02:28:40.788Z,11.69
2023-05-14T02:31:09.168Z,11.91
2023-05-14T02:33:37.884Z,11.74
2023-05-14T02:36:08.934Z,12.08
2023-05-14T02:38:37.571Z,12.08
2023-05-14T02:41:05.923Z,12.07
2023-05-14T02:43:34.179Z,12.25
2023-05-14T02:46:04.164Z,11.80
2023-05-14T02:48:32.438Z,11.54
2023-05-14T02:51:01.143Z,11.66
2023-05-14T02:53:29.786Z,11.92
2023-05-14T02:55:58.162Z,11.99
2023-05-14T02:58:28.483Z,11.63
2023-05-14T03:00:57.464Z,12.03
2023-05-14T03:03:27.707Z,11.95
2023-05-14T03:05:56.886Z,11.63
2023-05-14T03:08:25.293Z,11.65
2023-05-14T03:10:53.637Z,11.72
2023-05-14T03:13:22.348Z,12.30
2023-05-14T03:15:54.838Z,12.26
2023-05-14T03:18:23.833Z,12.62
2023-05-14T03:20:56.117Z,12.31
2023-05-14T03:23:24.791Z,12.10
2023-05-14T03:25:53.587Z,12.70
2023-05-14T03:28:21.899Z,11.99
2023-05-14T03:30:50.768Z,11.78
2023-05-14T03:33:19.184Z,11.64
2023-05-14T03:35:47.674Z,11.90
2023-05-14T03:38:17.650Z,12.15
2023-05-14T03:40:48.122Z,12.36
2023-05-14T03:43:17.339Z,12.30
2023-05-14T03:45:45.776Z,11.99
2023-05-14T03:48:14.309Z,11.90
2023-05-14T03:50:43.371Z,11.92
2023-05-14T03:53:11.674Z,11.62
2023-05-14T03:55:41.347Z,11.31
2023-05-14T03:58:14.218Z,11.69
2023-05-14T04:00:42.829Z,12.08
2023-05-14T04:03:12.160Z,11.71
2023-05-14T04:05:40.633Z,11.61
2023-05-14T04:08:09.165Z,11.80
2023-05-14T04:10:37.778Z,11.95
2023-05-14T04:13:07.654Z,12.11
2023-05-14T04:15:39.274Z,11.70
2023-05-14T04:18:08.026Z,11.54
2023-05-14T04:20:36.911Z,11.82
2023-05-14T04:23:05.316Z,12.03
2023-05-14T04:25:33.930Z,11.92
2023-05-14T04:28:02.320Z,12.24
2023-05-14T04:30:32.040Z,12.21
2023-05-14T04:33:00.666Z,11.99
2023-05-14T04:35:29.188Z,11.85
2023-05-14T04:37:57.607Z,12.19
2023-05-14T04:40:26.542Z,12.77
2023-05-14T04:42:55.030Z,12.27
2023-05-14T04:45:23.276Z,12.49
2023-05-14T04:47:55.949Z,12.69
2023-05-14T04:50:24.421Z,12.65
2023-05-14T04:52:53.272Z,12.43
2023-05-14T04:55:21.657Z,12.12
2023-05-14T04:57:50.277Z,11.99
2023-05-14T05:00:19.169Z,12.12
2023-05-14T05:02:47.527Z,11.89
2023-05-14T05:05:17.243Z,12.42
2023-05-14T05:07:45.846Z,12.15
2023-05-14T05:10:14.207Z,11.88
2023-05-14T05:12:42.615Z,12.23
2023-05-14T05:15:11.355Z,12.00
2023-05-14T05:17:39.739Z,11.98
2023-05-14T05:20:10.020Z,12.00
2023-05-14T05:22:40.065Z,11.80
2023-05-14T05:25:09.207Z,12.22
2023-05-14T05:27:37.567Z,11.95
2023-05-14T05:30:08.408Z,11.91
2023-05-14T05:32:36.842Z,12.18
2023-05-14T05:35:05.594Z,11.75
2023-05-14T05:37:34.362Z,12.00
2023-05-14T05:40:05.968Z,12.18
2023-05-14T05:42:34.553Z,12.10
2023-05-14T05:45:02.941Z,11.81
2023-05-14T05:47:32.874Z,11.78
2023-05-14T05:50:01.933Z,11.95
2023-05-14T05:52:30.328Z,11.89
2023-05-14T05:54:58.688Z,11.93
2023-05-14T05:57:28.666Z,12.09
2023-05-14T05:59:56.973Z,12.20
2023-05-14T06:02:25.594Z,11.98
2023-05-14T06:04:54.244Z,12.23
2023-05-14T06:07:22.586Z,12.30
2023-05-14T06:09:50.861Z,12.05
2023-05-14T06:12:19.491Z,12.08
2023-05-14T06:14:51.479Z,12.24
2023-05-14T06:17:20.088Z,12.36
2023-05-14T06:19:48.353Z,12.26
2023-05-14T06:22:16.693Z,12.43
2023-05-14T06:24:45.266Z,12.86
2023-05-14T06:27:13.557Z,12.77
2023-05-14T06:29:41.836Z,12.18
2023-05-14T06:32:15.442Z,12.30
2023-05-14T06:34:43.881Z,11.92
2023-05-14T06:37:12.784Z,12.34
2023-05-14T06:39:44.170Z,12.81
2023-05-14T06:42:12.757Z,12.78
2023-05-14T06:44:41.183Z,12.07
2023-05-14T06:47:10.973Z,12.27
2023-05-14T06:49:39.630Z,12.06
2023-05-14T06:52:08.148Z,11.94
2023-05-14T06:54:36.510Z,12.11
2023-05-14T06:57:05.245Z,12.23
2023-05-14T06:59:33.621Z,12.22
2023-05-14T07:02:02.343Z,12.37
2023-05-14T07:04:32.373Z,12.61
2023-05-14T07:07:00.731Z,11.79
2023-05-14T07:09:29.091Z,12.19
2023-05-14T07:11:57.886Z,11.91
2023-05-14T07:14:26.272Z,11.88
2023-05-14T07:16:54.693Z,12.30
2023-05-14T07:19:23.384Z,12.23
2023-05-14T07:21:53.084Z,12.20
2023-05-14T07:24:21.389Z,12.54
2023-05-14T07:26:50.259Z,12.86
2023-05-14T07:29:18.586Z,12.57
2023-05-14T07:31:46.966Z,12.48
2023-05-14T07:34:15.617Z,12.46
2023-05-14T07:36:43.968Z,13.09
2023-05-14T07:39:16.773Z,13.05
2023-05-14T07:41:45.441Z,12.75
2023-05-14T07:44:13.750Z,12.85
2023-05-14T07:46:42.161Z,13.54
2023-05-14T07:49:10.887Z,13.27
2023-05-14T07:51:39.538Z,12.85
2023-05-14T07:54:07.790Z,13.68
2023-05-14T07:56:37.828Z,13.17
2023-05-14T07:59:07.108Z,12.81
2023-05-14T08:01:37.737Z,13.49
2023-05-14T08:04:08.038Z,13.10
2023-05-14T08:06:37.218Z,13.05
2023-05-14T08:09:06.389Z,13.72
2023-05-14T08:11:34.903Z,13.78
2023-05-14T08:14:04.632Z,13.98
2023-05-14T08:16:33.091Z,14.38
2023-05-14T08:19:01.773Z,13.87
2023-05-14T08:21:30.135Z,13.76
2023-05-14T08:24:00.469Z,13.77
2023-05-14T08:26:29.085Z,13.40
2023-05-14T08:28:57.389Z,13.81
2023-05-14T08:31:27.263Z,13.86
2023-05-14T08:33:55.845Z,13.17
2023-05-14T08:36:24.145Z,13.95
2023-05-14T08:38:52.746Z,13.98
2023-05-14T08:41:21.351Z,13.76
2023-05-14T08:43:52.335Z,13.40
2023-05-14T08:46:21.041Z,13.73
2023-05-14T08:48:51.612Z,13.69
2023-05-14T08:51:20.024Z,13.82
2023-05-14T08:53:49.151Z,13.77
2023-05-14T08:56:17.752Z,14.21
2023-05-14T08:58:46.178Z,14.59
2023-05-14T09:01:15.151Z,14.73
2023-05-14T09:03:43.511Z,14.38
2023-05-14T09:06:13.376Z,14.47
2023-05-14T09:08:42.056Z,14.73
2023-05-14T09:11:10.370Z,14.55
2023-05-14T09:13:39.440Z,13.53
2023-05-14T09:16:08.384Z,13.62
2023-05-14T09:18:37.162Z,13.40
2023-05-14T09:21:05.622Z,14.06
2023-05-14T09:23:35.544Z,13.59
2023-05-14T09:26:05.589Z,13.54
2023-05-14T09:28:34.201Z,13.62
2023-05-14T09:31:02.845Z,13.58
2023-05-14T09:33:31.110Z,13.58
2023-05-14T09:36:00.584Z,13.45
2023-05-14T09:38:31.803Z,13.23
2023-05-14T09:41:01.861Z,13.64
2023-05-14T09:43:30.238Z,12.99
2023-05-14T09:45:58.693Z,12.94
2023-05-14T09:48:27.315Z,13.05
2023-05-14T09:50:57.915Z,13.42
2023-05-14T09:53:26.526Z,12.88
2023-05-14T09:55:54.895Z,12.85
2023-05-14T09:58:24.675Z,12.82
2023-05-14T10:00:53.339Z,12.97
2023-05-14T10:03:21.968Z,12.73
2023-05-14T10:05:51.078Z,12.92
2023-05-14T10:08:21.393Z,13.27
2023-05-14T10:10:49.993Z,13.09
2023-05-14T10:13:19.543Z,13.07
2023-05-14T10:15:49.640Z,13.03
2023-05-14T10:18:19.269Z,13.44
2023-05-14T10:20:48.334Z,13.26
2023-05-14T10:23:16.708Z,13.33
2023-05-14T10:25:45.245Z,13.37
2023-05-14T10:28:13.578Z,13.91
2023-05-14T10:30:44.831Z,13.83
2023-05-14T10:33:15.530Z,14.03
2023-05-14T10:36:01.098Z,13.81
2023-05-14T10:38:30.116Z,13.81
2023-05-14T10:41:05.263Z,13.45
2023-05-14T10:43:40.500Z,13.39
2023-05-14T10:46:09.199Z,13.66
2023-05-14T10:48:39.864Z,13.83
2023-05-14T10:51:08.632Z,13.32
2023-05-14T10:53:37.316Z,13.78
2023-05-14T10:56:07.065Z,13.69
2023-05-14T10:58:39.152Z,13.60
2023-05-14T11:01:08.348Z,14.14
2023-05-14T11:03:42.188Z,13.87
2023-05-14T11:06:11.319Z,13.75
2023-05-14T11:08:39.742Z,13.33
2023-05-14T11:11:08.091Z,13.39
2023-05-14T11:13:36.609Z,13.28
2023-05-14T11:16:15.636Z,13.69
2023-05-14T11:18:55.879Z,13.47
2023-05-14T11:21:24.265Z,13.38
2023-05-14T11:23:53.016Z,13.50
2023-05-14T11:26:21.728Z,13.39
2023-05-14T11:28:50.303Z,13.34
2023-05-14T11:31:19.029Z,13.85
2023-05-14T11:33:47.354Z,13.82
2023-05-14T11:36:19.259Z,13.83
2023-05-14T11:38:49.453Z,14.18
2023-05-14T11:41:17.837Z,13.65
2023-05-14T11:43:46.205Z,13.61
2023-05-14T11:46:19.076Z,14.11
2023-05-14T11:48:47.807Z,13.93
2023-05-14T11:51:17.896Z,13.93
2023-05-14T11:53:46.438Z,13.61
2023-05-14T11:56:14.838Z,14.14
2023-05-14T11:58:48.375Z,14.31
2023-05-14T12:01:16.761Z,14.29
2023-05-14T12:03:45.472Z,13.86
2023-05-14T12:06:13.978Z,14.24
2023-05-14T12:08:43.717Z,14.00
2023-05-14T12:11:12.427Z,14.12
2023-05-14T12:13:40.959Z,13.83
2023-05-14T12:16:09.312Z,14.23
2023-05-14T12:18:38.063Z,14.25
2023-05-14T12:21:09.162Z,13.48
2023-05-14T12:23:38.277Z,13.61
2023-05-14T12:26:08.354Z,13.17
2023-05-14T12:28:38.608Z,13.18
2023-05-14T12:31:07.433Z,13.56
2023-05-14T12:33:35.801Z,13.57
2023-05-14T12:36:20.436Z,13.37
2023-05-14T12:38:49.741Z,13.27
2023-05-14T12:41:19.546Z,12.87
2023-05-14T12:43:48.631Z,13.41
2023-05-14T12:46:17.462Z,13.54
2023-05-14T12:48:46.452Z,12.96
2023-05-14T12:51:14.925Z,13.00
2023-05-14T12:53:43.586Z,13.00
2023-05-14T12:56:11.980Z,12.43
2023-05-14T12:58:41.720Z,12.71
2023-05-14T13:01:10.679Z,12.55
2023-05-14T13:03:39.034Z,12.68
2023-05-14T13:06:07.527Z,12.63
2023-05-14T13:08:36.135Z,12.50
2023-05-14T13:11:04.462Z,12.77
2023-05-14T13:13:32.833Z,12.85
2023-05-14T13:16:03.547Z,12.85
2023-05-14T13:18:32.115Z,13.07
2023-05-14T13:21:00.842Z,12.93
2023-05-14T13:23:29.199Z,12.71
2023-05-14T13:25:57.481Z,12.37
2023-05-14T13:28:26.074Z,12.78
2023-05-14T13:31:08.697Z,12.69
2023-05-14T13:33:37.595Z,12.80
2023-05-14T13:36:06.299Z,12.71
2023-05-14T13:38:34.877Z,12.70
2023-05-14T13:41:03.505Z,12.64
2023-05-14T13:43:31.935Z,12.88
2023-05-14T13:46:00.411Z,12.72
2023-05-14T13:48:31.095Z,12.68
2023-05-14T13:50:59.467Z,12.76
2023-05-14T13:53:27.824Z,12.84
2023-05-14T13:56:00.166Z,12.82
2023-05-14T13:58:28.607Z,12.84
2023-05-14T14:00:57.675Z,12.72
2023-05-14T14:03:26.275Z,12.75
2023-05-14T14:05:55.897Z,12.55
2023-05-14T14:08:24.666Z,12.86
2023-05-14T14:10:55.270Z,12.83
2023-05-14T14:13:24.447Z,13.34
2023-05-14T14:15:53.229Z,12.94
2023-05-14T14:18:21.692Z,13.47
2023-05-14T14:20:50.158Z,13.18
2023-05-14T14:23:20.069Z,12.84
2023-05-14T14:25:48.396Z,13.21
2023-05-14T14:28:16.738Z,13.74
2023-05-14T14:30:45.375Z,13.53
2023-05-14T14:33:14.105Z,13.61
2023-05-14T14:35:42.518Z,13.41
2023-05-14T14:38:11.077Z,13.18
2023-05-14T14:40:40.836Z,13.36
2023-05-14T14:43:09.165Z,13.42
2023-05-14T14:45:37.804Z,12.78
2023-05-14T14:48:25.129Z,12.91
2023-05-14T14:50:53.817Z,13.35
2023-05-14T14:53:22.197Z,13.01
2023-05-14T14:55:51.951Z,13.23
2023-05-14T14:58:20.861Z,13.16
2023-05-14T15:00:49.198Z,12.58
2023-05-14T15:03:18.788Z,12.60
2023-05-14T15:05:47.597Z,12.70
2023-05-14T15:08:15.967Z,12.67
2023-05-14T15:10:45.138Z,12.70
2023-05-14T15:13:15.145Z,12.52
2023-05-14T15:15:43.582Z,12.69
2023-05-14T15:18:12.233Z,12.79
2023-05-14T15:20:41.119Z,12.42
2023-05-14T15:23:11.491Z,12.08
2023-05-14T15:25:39.936Z,12.35
2023-05-14T15:28:08.557Z,12.44
2023-05-14T15:30:38.211Z,12.47
2023-05-14T15:33:07.412Z,12.50
2023-05-14T15:35:36.529Z,12.29
2023-05-14T15:38:04.929Z,12.53
2023-05-14T15:40:34.995Z,12.51
2023-05-14T15:43:03.694Z,12.70
2023-05-14T15:45:32.053Z,12.48
2023-05-14T15:48:01.833Z,12.20
2023-05-14T15:50:30.448Z,12.38
2023-05-14T15:52:58.868Z,12.35
2023-05-14T15:55:27.226Z,12.44
2023-05-14T15:57:55.862Z,12.41
2023-05-14T16:00:25.119Z,12.37
2023-05-14T16:02:53.919Z,12.63
2023-05-14T16:05:23.802Z,12.31
2023-05-14T16:07:52.242Z,12.07
2023-05-14T16:10:23.634Z,12.27
2023-05-14T16:12:52.194Z,12.38
2023-05-14T16:15:21.088Z,12.71
2023-05-14T16:17:49.550Z,12.57
2023-05-14T16:20:18.041Z,12.02
2023-05-14T16:22:48.019Z,12.36
2023-05-14T16:25:18.697Z,12.35
2023-05-14T16:27:47.384Z,12.11
2023-05-14T16:30:15.844Z,12.14
2023-05-14T16:32:46.676Z,12.64
2023-05-14T16:35:15.570Z,12.31
2023-05-14T16:37:44.031Z,12.27
2023-05-14T16:40:16.091Z,12.28
2023-05-14T16:42:46.435Z,12.22
2023-05-14T16:45:16.200Z,12.15
2023-05-14T16:47:45.338Z,12.36
2023-05-14T16:50:13.904Z,12.57
2023-05-14T16:52:42.482Z,12.89
2023-05-14T16:55:13.955Z,12.93
2023-05-14T16:57:43.758Z,13.01
2023-05-14T17:00:12.944Z,12.99
2023-05-14T17:02:41.409Z,13.06
2023-05-14T17:05:11.065Z,12.68
2023-05-14T17:07:40.109Z,12.64
2023-05-14T17:10:09.045Z,13.07
2023-05-14T17:12:38.746Z,12.93
2023-05-14T17:15:08.259Z,13.01
2023-05-14T17:17:36.949Z,12.38
2023-05-14T17:20:06.267Z,12.54
2023-05-14T17:22:34.762Z,12.80
2023-05-14T17:25:03.155Z,12.86
2023-05-14T17:27:33.359Z,12.19
2023-05-14T17:30:03.476Z,11.85
2023-05-14T17:32:34.245Z,12.24
2023-05-14T17:35:03.126Z,11.95
2023-05-14T17:37:34.082Z,11.92
2023-05-14T17:40:02.939Z,12.51
2023-05-14T17:42:31.311Z,12.70
2023-05-14T17:44:59.727Z,13.35
2023-05-14T17:47:29.713Z,12.54
2023-05-14T17:49:58.265Z,12.58
2023-05-14T17:52:26.798Z,12.54
2023-05-14T17:54:55.366Z,12.06
2023-05-14T17:57:23.873Z,12.00
2023-05-14T17:59:52.189Z,12.04
2023-05-14T18:02:20.763Z,12.07
2023-05-14T18:04:51.200Z,11.91
2023-05-14T18:07:21.132Z,11.97
2023-05-14T18:09:49.845Z,12.52
2023-05-14T18:12:18.191Z,12.69
2023-05-14T18:14:46.756Z,12.81
2023-05-14T18:17:15.538Z,12.62
2023-05-14T18:19:44.172Z,12.24
2023-05-14T18:22:14.245Z,12.20
2023-05-14T18:24:46.519Z,12.49
2023-05-14T18:27:18.857Z,12.55
2023-05-14T18:29:47.562Z,12.34
2023-05-14T18:32:15.903Z,12.55
2023-05-14T18:34:44.385Z,12.45
2023-05-14T18:37:14.868Z,12.45
2023-05-14T18:39:53.187Z,12.23
2023-05-14T18:42:22.349Z,12.44
2023-05-14T18:44:51.513Z,12.57
2023-05-14T18:47:19.941Z,12.60
2023-05-14T18:49:50.682Z,12.78
2023-05-14T18:52:20.476Z,12.54
2023-05-14T18:54:49.520Z,12.48
2023-05-14T18:57:17.942Z,12.23
2023-05-14T18:59:46.495Z,12.36
2023-05-14T19:02:15.098Z,12.48
2023-05-14T19:04:52.470Z,12.42
2023-05-14T19:07:23.549Z,13.01
2023-05-14T19:09:52.491Z,13.17
2023-05-14T19:12:20.993Z,13.01
2023-05-14T19:14:52.640Z,12.54
2023-05-14T19:17:21.559Z,12.55
2023-05-14T19:19:50.562Z,12.60
2023-05-14T19:22:19.859Z,12.68
2023-05-14T19:27:24.237Z,12.42
2023-05-14T19:29:52.795Z,12.50
2023-05-14T19:32:22.363Z,12.91
2023-05-14T19:34:51.835Z,13.08
2023-05-14T19:37:20.549Z,13.13
2023-05-14T19:39:50.741Z,12.98
2023-05-14T19:42:19.496Z,12.98
2023-05-14T19:44:48.254Z,13.09
2023-05-14T19:47:16.627Z,13.10
2023-05-14T19:49:45.571Z,13.50
2023-05-14T19:52:14.222Z,13.39
2023-05-14T19:54:42.803Z,13.53
2023-05-14T19:57:13.115Z,13.71
2023-05-14T19:59:42.518Z,13.33
2023-05-14T20:02:15.506Z,13.31
2023-05-14T20:04:45.997Z,12.79
2023-05-14T20:07:16.040Z,13.25
2023-05-14T20:09:45.126Z,13.27
2023-05-14T20:12:14.842Z,13.27
2023-05-14T20:14:43.585Z,13.27
2023-05-14T20:17:12.288Z,13.23
2023-05-14T20:19:41.285Z,12.91
2023-05-14T20:22:09.890Z,12.88
2023-05-14T20:24:38.610Z,13.19
2023-05-14T20:27:07.296Z,13.49
2023-05-14T20:29:36.970Z,13.62
2023-05-14T20:32:05.955Z,13.18
2023-05-14T20:34:34.294Z,13.27
2023-05-14T20:37:04.804Z,13.60
2023-05-14T20:39:33.465Z,13.19
2023-05-14T20:42:01.855Z,12.91
2023-05-14T20:44:30.245Z,12.99
2023-05-14T20:47:00.134Z,13.11
2023-05-14T20:49:28.674Z,12.93
2023-05-14T20:51:56.995Z,13.05
2023-05-14T20:54:25.639Z,13.23
2023-05-14T20:56:53.976Z,13.31
2023-05-14T20:59:22.271Z,13.03
2023-05-14T21:01:51.084Z,13.06
2023-05-14T21:04:21.052Z,12.69
2023-05-14T21:06:49.451Z,12.62
2023-05-14T21:09:18.085Z,12.80
2023-05-14T21:11:46.599Z,12.78
2023-05-14T21:14:14.893Z,12.95
2023-05-14T21:16:43.499Z,12.71
2023-05-14T21:19:14.733Z,13.32
2023-05-14T21:21:45.694Z,12.97
2023-05-14T21:24:14.100Z,13.08
2023-05-14T21:26:42.502Z,13.10
2023-05-14T21:29:14.988Z,13.10
2023-05-14T21:31:43.556Z,12.77
2023-05-14T21:34:12.239Z,12.94
2023-05-14T21:36:40.507Z,12.88
2023-05-14T21:39:10.195Z,12.53
2023-05-14T21:41:38.916Z,12.52
2023-05-14T21:44:07.440Z,12.55
2023-05-14T21:46:35.991Z,12.38
2023-05-14T21:49:04.665Z,12.88
2023-05-14T21:51:33.122Z,13.06
2023-05-14T21:54:01.500Z,12.73
2023-05-14T21:56:31.427Z,12.99
2023-05-14T21:58:59.796Z,12.82
2023-05-14T22:01:28.385Z,13.01
2023-05-14T22:03:57.974Z,13.01
2023-05-14T22:06:26.568Z,12.93
2023-05-14T22:08:54.918Z,13.08
2023-05-14T22:11:23.495Z,13.18
2023-05-14T22:13:53.119Z,13.08
2023-05-14T22:16:22.373Z,13.31
2023-05-14T22:18:51.276Z,13.08
2023-05-14T22:21:19.640Z,13.51
2023-05-14T22:23:49.066Z,13.16
2023-05-14T22:26:17.741Z,13.26
2023-05-14T22:28:46.146Z,13.32
2023-05-14T22:31:15.953Z,13.55
2023-05-14T22:33:44.591Z,13.44
2023-05-14T22:36:12.864Z,13.61
2023-05-14T22:38:43.774Z,13.48
2023-05-14T22:41:13.409Z,13.91
2023-05-14T22:43:41.706Z,13.16
2023-05-14T22:46:10.097Z,13.49
2023-05-14T22:48:39.987Z,13.89
2023-05-14T22:51:08.346Z,13.97
2023-05-14T22:53:36.777Z,14.36
2023-05-14T22:56:05.756Z,14.58
2023-05-14T22:58:34.018Z,14.14
2023-05-14T23:01:02.333Z,14.50
2023-05-14T23:03:31.093Z,14.16
2023-05-14T23:06:00.806Z,14.25
2023-05-14T23:08:29.066Z,14.36
2023-05-14T23:10:57.691Z,14.39
2023-05-14T23:13:26.111Z,14.14
2023-05-14T23:15:54.461Z,14.28
2023-05-14T23:18:24.046Z,14.21
2023-05-14T23:20:52.407Z,14.12
2023-05-14T23:23:22.054Z,13.81
2023-05-14T23:25:50.686Z,13.44
2023-05-14T23:28:19.171Z,13.15
2023-05-14T23:30:47.480Z,13.23
2023-05-14T23:33:16.145Z,13.66
2023-05-14T23:35:44.465Z,13.86
2023-05-14T23:38:12.833Z,13.98
2023-05-14T23:40:42.832Z,13.83
2023-05-14T23:43:11.129Z,14.04
2023-05-14T23:45:39.481Z,13.77
2023-05-14T23:48:08.111Z,13.71
2023-05-14T23:50:36.996Z,13.85
2023-05-14T23:53:05.365Z,14.08
2023-05-14T23:55:33.963Z,13.72
2023-05-14T23:58:03.622Z,13.51
